sensor_id;sensor_type;location;lat;lon;timestamp;P1;durP1;ratioP1;P2;durP2;ratioP2
82296;SDS011;71899;51.992;8.648;2023-08-17T00:00:40;7.38;;;4.80;;
82296;SDS011;71899;51.992;8.648;2023-08-17T00:03:06;13.07;;;5.05;;
82296;SDS011;71899;51.992;8.648;2023-08-17T00:05:31;7.25;;;4.43;;
82296;SDS011;71899;51.992;8.648;2023-08-17T00:07:59;14.27;;;4.55;;
82296;SDS011;71899;51.992;8.648;2023-08-17T00:10:26;9.77;;;4.75;;
82296;SDS011;71899;51.992;8.648;2023-08-17T00:12:51;8.65;;;5.53;;
82296;SDS011;71899;51.992;8.648;2023-08-17T00:15:16;11.02;;;4.72;;
82296;SDS011;71899;51.992;8.648;2023-08-17T00:17:42;18.17;;;6.00;;
82296;SDS011;71899;51.992;8.648;2023-08-17T00:20:07;6.90;;;4.97;;
82296;SDS011;71899;51.992;8.648;2023-08-17T00:22:34;9.07;;;5.70;;
82296;SDS011;71899;51.992;8.648;2023-08-17T00:25:00;11.73;;;6.25;;
82296;SDS011;71899;51.992;8.648;2023-08-17T00:27:25;8.95;;;5.93;;
82296;SDS011;71899;51.992;8.648;2023-08-17T00:29:52;9.20;;;5.20;;
82296;SDS011;71899;51.992;8.648;2023-08-17T00:32:17;10.90;;;5.15;;
82296;SDS011;71899;51.992;8.648;2023-08-17T00:34:42;8.40;;;5.93;;
82296;SDS011;71899;51.992;8.648;2023-08-17T00:37:08;8.07;;;6.60;;
82296;SDS011;71899;51.992;8.648;2023-08-17T00:39:33;10.73;;;6.82;;
82296;SDS011;71899;51.992;8.648;2023-08-17T00:41:59;11.07;;;6.32;;
82296;SDS011;71899;51.992;8.648;2023-08-17T00:44:24;14.10;;;7.75;;
82296;SDS011;71899;51.992;8.648;2023-08-17T00:46:49;10.27;;;7.22;;
82296;SDS011;71899;51.992;8.648;2023-08-17T00:49:15;14.10;;;6.30;;
82296;SDS011;71899;51.992;8.648;2023-08-17T00:51:40;11.52;;;7.68;;
82296;SDS011;71899;51.992;8.648;2023-08-17T00:54:06;11.35;;;7.05;;
82296;SDS011;71899;51.992;8.648;2023-08-17T00:56:32;10.90;;;6.57;;
82296;SDS011;71899;51.992;8.648;2023-08-17T00:58:57;13.55;;;7.95;;
82296;SDS011;71899;51.992;8.648;2023-08-17T01:01:23;12.10;;;7.35;;
82296;SDS011;71899;51.992;8.648;2023-08-17T01:03:49;12.13;;;7.22;;
82296;SDS011;71899;51.992;8.648;2023-08-17T01:06:15;9.93;;;6.82;;
82296;SDS011;71899;51.992;8.648;2023-08-17T01:08:41;9.98;;;6.10;;
82296;SDS011;71899;51.992;8.648;2023-08-17T01:16:22;10.43;;;6.68;;
82296;SDS011;71899;51.992;8.648;2023-08-17T01:18:52;14.98;;;7.18;;
82296;SDS011;71899;51.992;8.648;2023-08-17T01:21:23;13.88;;;7.68;;
82296;SDS011;71899;51.992;8.648;2023-08-17T01:23:49;15.88;;;7.32;;
82296;SDS011;71899;51.992;8.648;2023-08-17T01:26:16;8.85;;;6.30;;
82296;SDS011;71899;51.992;8.648;2023-08-17T01:28:45;16.40;;;8.18;;
82296;SDS011;71899;51.992;8.648;2023-08-17T01:31:14;15.75;;;8.13;;
82296;SDS011;71899;51.992;8.648;2023-08-17T01:33:48;13.73;;;8.20;;
82296;SDS011;71899;51.992;8.648;2023-08-17T01:36:19;16.05;;;8.43;;
82296;SDS011;71899;51.992;8.648;2023-08-17T01:38:47;16.00;;;8.45;;
82296;SDS011;71899;51.992;8.648;2023-08-17T01:41:16;24.08;;;11.65;;
82296;SDS011;71899;51.992;8.648;2023-08-17T01:43:42;18.02;;;8.23;;
82296;SDS011;71899;51.992;8.648;2023-08-17T01:46:13;15.90;;;7.82;;
82296;SDS011;71899;51.992;8.648;2023-08-17T01:48:40;15.95;;;8.48;;
82296;SDS011;71899;51.992;8.648;2023-08-17T01:51:05;18.88;;;8.07;;
82296;SDS011;71899;51.992;8.648;2023-08-17T01:53:31;17.17;;;8.57;;
82296;SDS011;71899;51.992;8.648;2023-08-17T01:55:56;11.90;;;7.72;;
82296;SDS011;71899;51.992;8.648;2023-08-17T01:58:22;24.33;;;9.80;;
82296;SDS011;71899;51.992;8.648;2023-08-17T02:00:48;18.35;;;8.88;;
82296;SDS011;71899;51.992;8.648;2023-08-17T02:03:13;15.85;;;7.88;;
82296;SDS011;71899;51.992;8.648;2023-08-17T02:05:38;18.55;;;7.82;;
82296;SDS011;71899;51.992;8.648;2023-08-17T02:08:04;18.83;;;8.52;;
82296;SDS011;71899;51.992;8.648;2023-08-17T02:10:30;18.88;;;8.60;;
82296;SDS011;71899;51.992;8.648;2023-08-17T02:12:55;15.48;;;8.13;;
82296;SDS011;71899;51.992;8.648;2023-08-17T02:15:20;19.90;;;9.85;;
82296;SDS011;71899;51.992;8.648;2023-08-17T02:17:46;17.92;;;7.68;;
82296;SDS011;71899;51.992;8.648;2023-08-17T02:20:11;13.30;;;7.97;;
82296;SDS011;71899;51.992;8.648;2023-08-17T02:22:36;21.33;;;9.02;;
82296;SDS011;71899;51.992;8.648;2023-08-17T02:25:01;19.98;;;9.20;;
82296;SDS011;71899;51.992;8.648;2023-08-17T02:27:27;18.17;;;9.45;;
82296;SDS011;71899;51.992;8.648;2023-08-17T02:29:56;20.85;;;11.50;;
82296;SDS011;71899;51.992;8.648;2023-08-17T02:32:21;16.42;;;10.63;;
82296;SDS011;71899;51.992;8.648;2023-08-17T02:34:47;20.17;;;10.05;;
82296;SDS011;71899;51.992;8.648;2023-08-17T02:37:12;20.15;;;11.45;;
82296;SDS011;71899;51.992;8.648;2023-08-17T02:39:37;29.08;;;11.93;;
82296;SDS011;71899;51.992;8.648;2023-08-17T02:42:03;19.55;;;11.32;;
82296;SDS011;71899;51.992;8.648;2023-08-17T02:44:29;28.77;;;12.23;;
82296;SDS011;71899;51.992;8.648;2023-08-17T02:46:55;27.42;;;13.10;;
82296;SDS011;71899;51.992;8.648;2023-08-17T02:49:20;35.92;;;14.43;;
82296;SDS011;71899;51.992;8.648;2023-08-17T02:51:46;33.40;;;15.05;;
82296;SDS011;71899;51.992;8.648;2023-08-17T02:54:11;34.10;;;14.95;;
82296;SDS011;71899;51.992;8.648;2023-08-17T02:56:36;24.45;;;12.98;;
82296;SDS011;71899;51.992;8.648;2023-08-17T02:59:02;32.03;;;14.05;;
82296;SDS011;71899;51.992;8.648;2023-08-17T03:01:27;28.52;;;13.70;;
82296;SDS011;71899;51.992;8.648;2023-08-17T03:03:54;34.53;;;14.10;;
82296;SDS011;71899;51.992;8.648;2023-08-17T03:06:19;36.83;;;14.40;;
82296;SDS011;71899;51.992;8.648;2023-08-17T03:08:44;40.83;;;15.82;;
82296;SDS011;71899;51.992;8.648;2023-08-17T03:11:10;41.65;;;16.02;;
82296;SDS011;71899;51.992;8.648;2023-08-17T03:13:35;34.45;;;15.30;;
82296;SDS011;71899;51.992;8.648;2023-08-17T03:16:01;40.58;;;15.18;;
82296;SDS011;71899;51.992;8.648;2023-08-17T03:18:26;43.95;;;14.88;;
82296;SDS011;71899;51.992;8.648;2023-08-17T03:20:51;41.88;;;16.63;;
82296;SDS011;71899;51.992;8.648;2023-08-17T03:23:17;39.03;;;15.60;;
82296;SDS011;71899;51.992;8.648;2023-08-17T03:25:43;39.85;;;16.23;;
82296;SDS011;71899;51.992;8.648;2023-08-17T03:28:10;62.53;;;18.17;;
82296;SDS011;71899;51.992;8.648;2023-08-17T03:30:36;58.03;;;17.00;;
82296;SDS011;71899;51.992;8.648;2023-08-17T03:33:01;66.07;;;17.67;;
82296;SDS011;71899;51.992;8.648;2023-08-17T03:35:29;50.55;;;16.98;;
82296;SDS011;71899;51.992;8.648;2023-08-17T03:37:55;49.45;;;18.02;;
82296;SDS011;71899;51.992;8.648;2023-08-17T03:40:20;66.57;;;17.52;;
82296;SDS011;71899;51.992;8.648;2023-08-17T03:42:45;41.20;;;15.88;;
82296;SDS011;71899;51.992;8.648;2023-08-17T03:45:11;49.70;;;17.13;;
82296;SDS011;71899;51.992;8.648;2023-08-17T03:47:37;46.42;;;16.80;;
82296;SDS011;71899;51.992;8.648;2023-08-17T03:50:02;59.45;;;18.20;;
82296;SDS011;71899;51.992;8.648;2023-08-17T03:52:28;46.70;;;18.63;;
82296;SDS011;71899;51.992;8.648;2023-08-17T03:54:54;56.70;;;18.67;;
82296;SDS011;71899;51.992;8.648;2023-08-17T03:57:19;88.20;;;21.85;;
82296;SDS011;71899;51.992;8.648;2023-08-17T03:59:44;66.57;;;20.88;;
82296;SDS011;71899;51.992;8.648;2023-08-17T04:02:10;79.05;;;21.92;;
82296;SDS011;71899;51.992;8.648;2023-08-17T04:04:36;72.07;;;21.27;;
82296;SDS011;71899;51.992;8.648;2023-08-17T04:07:01;63.35;;;20.15;;
82296;SDS011;71899;51.992;8.648;2023-08-17T04:09:28;55.63;;;19.15;;
82296;SDS011;71899;51.992;8.648;2023-08-17T04:11:53;61.83;;;18.20;;
82296;SDS011;71899;51.992;8.648;2023-08-17T04:14:19;60.40;;;19.17;;
82296;SDS011;71899;51.992;8.648;2023-08-17T04:16:46;52.83;;;19.30;;
82296;SDS011;71899;51.992;8.648;2023-08-17T04:19:11;64.18;;;20.52;;
82296;SDS011;71899;51.992;8.648;2023-08-17T04:21:36;62.00;;;20.35;;
82296;SDS011;71899;51.992;8.648;2023-08-17T04:24:02;63.42;;;20.13;;
82296;SDS011;71899;51.992;8.648;2023-08-17T04:26:28;44.13;;;18.25;;
82296;SDS011;71899;51.992;8.648;2023-08-17T04:28:54;33.60;;;16.75;;
82296;SDS011;71899;51.992;8.648;2023-08-17T04:31:19;44.47;;;17.38;;
82296;SDS011;71899;51.992;8.648;2023-08-17T04:33:51;47.58;;;19.10;;
82296;SDS011;71899;51.992;8.648;2023-08-17T04:36:16;49.55;;;18.75;;
82296;SDS011;71899;51.992;8.648;2023-08-17T04:38:42;56.95;;;20.38;;
82296;SDS011;71899;51.992;8.648;2023-08-17T04:41:07;48.38;;;19.63;;
82296;SDS011;71899;51.992;8.648;2023-08-17T04:43:32;46.85;;;20.20;;
82296;SDS011;71899;51.992;8.648;2023-08-17T04:45:58;59.53;;;21.15;;
82296;SDS011;71899;51.992;8.648;2023-08-17T04:48:23;47.78;;;20.65;;
82296;SDS011;71899;51.992;8.648;2023-08-17T04:50:49;52.55;;;19.58;;
82296;SDS011;71899;51.992;8.648;2023-08-17T04:53:14;42.72;;;18.92;;
82296;SDS011;71899;51.992;8.648;2023-08-17T04:55:40;58.80;;;20.13;;
82296;SDS011;71899;51.992;8.648;2023-08-17T04:58:05;47.95;;;18.17;;
82296;SDS011;71899;51.992;8.648;2023-08-17T05:00:30;36.88;;;17.08;;
82296;SDS011;71899;51.992;8.648;2023-08-17T05:02:56;46.10;;;19.20;;
82296;SDS011;71899;51.992;8.648;2023-08-17T05:05:24;47.03;;;19.45;;
82296;SDS011;71899;51.992;8.648;2023-08-17T05:07:52;40.45;;;17.85;;
82296;SDS011;71899;51.992;8.648;2023-08-17T05:10:17;46.78;;;18.60;;
82296;SDS011;71899;51.992;8.648;2023-08-17T05:12:43;36.10;;;17.40;;
82296;SDS011;71899;51.992;8.648;2023-08-17T05:15:09;40.53;;;17.77;;
82296;SDS011;71899;51.992;8.648;2023-08-17T05:17:34;39.50;;;17.10;;
82296;SDS011;71899;51.992;8.648;2023-08-17T05:20:00;37.10;;;16.83;;
82296;SDS011;71899;51.992;8.648;2023-08-17T05:22:27;41.35;;;15.95;;
82296;SDS011;71899;51.992;8.648;2023-08-17T05:24:52;37.90;;;17.63;;
82296;SDS011;71899;51.992;8.648;2023-08-17T05:27:18;41.92;;;17.80;;
82296;SDS011;71899;51.992;8.648;2023-08-17T05:29:43;41.95;;;18.73;;
82296;SDS011;71899;51.992;8.648;2023-08-17T05:32:09;42.78;;;17.05;;
82296;SDS011;71899;51.992;8.648;2023-08-17T05:34:35;38.65;;;18.17;;
82296;SDS011;71899;51.992;8.648;2023-08-17T05:37:01;37.80;;;17.70;;
82296;SDS011;71899;51.992;8.648;2023-08-17T05:39:28;32.25;;;16.23;;
82296;SDS011;71899;51.992;8.648;2023-08-17T05:41:53;42.75;;;18.60;;
82296;SDS011;71899;51.992;8.648;2023-08-17T05:44:19;35.90;;;16.92;;
82296;SDS011;71899;51.992;8.648;2023-08-17T05:46:45;38.95;;;18.08;;
82296;SDS011;71899;51.992;8.648;2023-08-17T05:49:10;32.97;;;16.95;;
82296;SDS011;71899;51.992;8.648;2023-08-17T05:51:35;39.22;;;18.13;;
82296;SDS011;71899;51.992;8.648;2023-08-17T05:54:01;33.55;;;15.30;;
82296;SDS011;71899;51.992;8.648;2023-08-17T05:56:26;22.58;;;14.55;;
82296;SDS011;71899;51.992;8.648;2023-08-17T05:58:53;27.75;;;15.20;;
82296;SDS011;71899;51.992;8.648;2023-08-17T06:01:18;27.55;;;15.27;;
82296;SDS011;71899;51.992;8.648;2023-08-17T06:03:43;32.63;;;14.57;;
82296;SDS011;71899;51.992;8.648;2023-08-17T06:06:09;33.70;;;17.02;;
82296;SDS011;71899;51.992;8.648;2023-08-17T06:08:34;24.40;;;14.32;;
82296;SDS011;71899;51.992;8.648;2023-08-17T06:11:00;37.63;;;15.60;;
82296;SDS011;71899;51.992;8.648;2023-08-17T06:13:25;32.55;;;14.25;;
82296;SDS011;71899;51.992;8.648;2023-08-17T06:15:51;25.83;;;15.48;;
82296;SDS011;71899;51.992;8.648;2023-08-17T06:18:16;27.02;;;12.85;;
82296;SDS011;71899;51.992;8.648;2023-08-17T06:20:41;19.45;;;12.35;;
82296;SDS011;71899;51.992;8.648;2023-08-17T06:23:07;21.70;;;12.93;;
82296;SDS011;71899;51.992;8.648;2023-08-17T06:25:32;27.90;;;14.18;;
82296;SDS011;71899;51.992;8.648;2023-08-17T06:27:59;27.10;;;14.38;;
82296;SDS011;71899;51.992;8.648;2023-08-17T06:30:24;26.88;;;14.30;;
82296;SDS011;71899;51.992;8.648;2023-08-17T06:32:50;24.23;;;13.98;;
82296;SDS011;71899;51.992;8.648;2023-08-17T06:35:16;26.45;;;14.38;;
82296;SDS011;71899;51.992;8.648;2023-08-17T06:37:41;28.70;;;14.48;;
82296;SDS011;71899;51.992;8.648;2023-08-17T06:40:07;29.20;;;16.05;;
82296;SDS011;71899;51.992;8.648;2023-08-17T06:42:34;33.85;;;16.27;;
82296;SDS011;71899;51.992;8.648;2023-08-17T06:44:59;32.67;;;15.80;;
82296;SDS011;71899;51.992;8.648;2023-08-17T06:47:25;30.73;;;14.80;;
82296;SDS011;71899;51.992;8.648;2023-08-17T06:49:50;27.48;;;15.73;;
82296;SDS011;71899;51.992;8.648;2023-08-17T06:52:15;21.33;;;13.93;;
82296;SDS011;71899;51.992;8.648;2023-08-17T06:54:40;29.23;;;15.48;;
82296;SDS011;71899;51.992;8.648;2023-08-17T06:57:06;23.05;;;13.77;;
82296;SDS011;71899;51.992;8.648;2023-08-17T06:59:31;23.55;;;13.18;;
82296;SDS011;71899;51.992;8.648;2023-08-17T07:01:58;29.90;;;13.98;;
82296;SDS011;71899;51.992;8.648;2023-08-17T07:04:24;24.02;;;13.63;;
82296;SDS011;71899;51.992;8.648;2023-08-17T07:06:49;23.90;;;12.95;;
82296;SDS011;71899;51.992;8.648;2023-08-17T07:09:14;21.27;;;14.20;;
82296;SDS011;71899;51.992;8.648;2023-08-17T07:11:40;22.98;;;13.40;;
82296;SDS011;71899;51.992;8.648;2023-08-17T07:14:05;19.02;;;13.15;;
82296;SDS011;71899;51.992;8.648;2023-08-17T07:16:34;24.02;;;11.82;;
82296;SDS011;71899;51.992;8.648;2023-08-17T07:18:59;17.30;;;11.85;;
82296;SDS011;71899;51.992;8.648;2023-08-17T07:21:25;19.60;;;12.27;;
82296;SDS011;71899;51.992;8.648;2023-08-17T07:23:51;20.48;;;14.48;;
82296;SDS011;71899;51.992;8.648;2023-08-17T07:26:19;19.05;;;13.00;;
82296;SDS011;71899;51.992;8.648;2023-08-17T07:28:44;28.23;;;14.88;;
82296;SDS011;71899;51.992;8.648;2023-08-17T07:31:10;23.25;;;14.60;;
82296;SDS011;71899;51.992;8.648;2023-08-17T07:33:36;25.85;;;14.68;;
82296;SDS011;71899;51.992;8.648;2023-08-17T07:36:01;26.55;;;14.23;;
82296;SDS011;71899;51.992;8.648;2023-08-17T07:38:27;29.25;;;15.60;;
82296;SDS011;71899;51.992;8.648;2023-08-17T07:40:52;23.83;;;14.55;;
82296;SDS011;71899;51.992;8.648;2023-08-17T07:43:17;24.63;;;14.75;;
82296;SDS011;71899;51.992;8.648;2023-08-17T07:45:43;26.67;;;14.38;;
82296;SDS011;71899;51.992;8.648;2023-08-17T07:48:08;21.35;;;13.55;;
82296;SDS011;71899;51.992;8.648;2023-08-17T07:50:33;23.95;;;12.88;;
82296;SDS011;71899;51.992;8.648;2023-08-17T07:52:59;16.15;;;11.38;;
82296;SDS011;71899;51.992;8.648;2023-08-17T07:55:25;21.33;;;11.70;;
82296;SDS011;71899;51.992;8.648;2023-08-17T07:57:51;18.00;;;11.23;;
82296;SDS011;71899;51.992;8.648;2023-08-17T08:00:19;13.50;;;9.52;;
82296;SDS011;71899;51.992;8.648;2023-08-17T08:02:45;13.00;;;8.93;;
82296;SDS011;71899;51.992;8.648;2023-08-17T08:05:11;15.73;;;9.88;;
82296;SDS011;71899;51.992;8.648;2023-08-17T08:07:39;11.07;;;8.82;;
82296;SDS011;71899;51.992;8.648;2023-08-17T08:10:04;11.60;;;7.32;;
82296;SDS011;71899;51.992;8.648;2023-08-17T08:12:30;14.82;;;8.35;;
82296;SDS011;71899;51.992;8.648;2023-08-17T08:14:55;10.32;;;7.70;;
82296;SDS011;71899;51.992;8.648;2023-08-17T08:17:20;11.50;;;7.55;;
82296;SDS011;71899;51.992;8.648;2023-08-17T08:19:48;9.00;;;6.90;;
82296;SDS011;71899;51.992;8.648;2023-08-17T08:22:16;9.38;;;7.05;;
82296;SDS011;71899;51.992;8.648;2023-08-17T08:24:41;11.30;;;7.63;;
82296;SDS011;71899;51.992;8.648;2023-08-17T08:27:06;10.07;;;6.85;;
82296;SDS011;71899;51.992;8.648;2023-08-17T08:29:32;10.27;;;7.15;;
82296;SDS011;71899;51.992;8.648;2023-08-17T08:31:57;10.40;;;6.55;;
82296;SDS011;71899;51.992;8.648;2023-08-17T08:34:31;13.07;;;6.72;;
82296;SDS011;71899;51.992;8.648;2023-08-17T08:36:56;10.77;;;6.88;;
82296;SDS011;71899;51.992;8.648;2023-08-17T08:39:21;11.45;;;7.50;;
82296;SDS011;71899;51.992;8.648;2023-08-17T08:41:47;7.70;;;6.47;;
82296;SDS011;71899;51.992;8.648;2023-08-17T08:44:12;9.43;;;7.28;;
82296;SDS011;71899;51.992;8.648;2023-08-17T08:46:38;8.13;;;6.47;;
82296;SDS011;71899;51.992;8.648;2023-08-17T08:49:07;9.30;;;6.72;;
82296;SDS011;71899;51.992;8.648;2023-08-17T08:51:43;10.13;;;6.93;;
82296;SDS011;71899;51.992;8.648;2023-08-17T08:54:14;11.60;;;7.20;;
82296;SDS011;71899;51.992;8.648;2023-08-17T08:56:45;8.20;;;6.68;;
82296;SDS011;71899;51.992;8.648;2023-08-17T08:59:11;10.40;;;6.75;;
82296;SDS011;71899;51.992;8.648;2023-08-17T09:01:37;11.43;;;6.32;;
82296;SDS011;71899;51.992;8.648;2023-08-17T09:04:03;8.45;;;6.85;;
82296;SDS011;71899;51.992;8.648;2023-08-17T09:06:29;10.18;;;6.70;;
82296;SDS011;71899;51.992;8.648;2023-08-17T09:08:58;8.85;;;6.75;;
82296;SDS011;71899;51.992;8.648;2023-08-17T09:11:26;8.52;;;6.78;;
82296;SDS011;71899;51.992;8.648;2023-08-17T09:13:52;9.63;;;6.53;;
82296;SDS011;71899;51.992;8.648;2023-08-17T09:16:17;11.82;;;7.32;;
82296;SDS011;71899;51.992;8.648;2023-08-17T09:18:43;8.30;;;6.28;;
82296;SDS011;71899;51.992;8.648;2023-08-17T09:21:08;9.85;;;6.53;;
82296;SDS011;71899;51.992;8.648;2023-08-17T09:23:49;12.10;;;6.90;;
82296;SDS011;71899;51.992;8.648;2023-08-17T09:26:19;10.05;;;7.45;;
82296;SDS011;71899;51.992;8.648;2023-08-17T09:28:47;9.27;;;6.82;;
82296;SDS011;71899;51.992;8.648;2023-08-17T09:31:12;10.35;;;7.18;;
82296;SDS011;71899;51.992;8.648;2023-08-17T09:33:38;13.77;;;7.55;;
82296;SDS011;71899;51.992;8.648;2023-08-17T09:36:03;11.30;;;7.93;;
82296;SDS011;71899;51.992;8.648;2023-08-17T09:38:29;13.27;;;7.20;;
82296;SDS011;71899;51.992;8.648;2023-08-17T09:40:57;9.40;;;7.50;;
82296;SDS011;71899;51.992;8.648;2023-08-17T09:46:20;10.45;;;6.68;;
82296;SDS011;71899;51.992;8.648;2023-08-17T09:48:46;13.25;;;7.20;;
82296;SDS011;71899;51.992;8.648;2023-08-17T09:51:16;9.90;;;6.53;;
82296;SDS011;71899;51.992;8.648;2023-08-17T09:53:42;9.30;;;6.68;;
82296;SDS011;71899;51.992;8.648;2023-08-17T09:56:10;9.40;;;7.03;;
82296;SDS011;71899;51.992;8.648;2023-08-17T09:58:38;14.02;;;6.70;;
82296;SDS011;71899;51.992;8.648;2023-08-17T10:01:06;9.68;;;7.05;;
82296;SDS011;71899;51.992;8.648;2023-08-17T10:03:34;11.40;;;7.18;;
82296;SDS011;71899;51.992;8.648;2023-08-17T10:06:01;10.27;;;7.18;;
82296;SDS011;71899;51.992;8.648;2023-08-17T10:08:31;14.07;;;7.32;;
82296;SDS011;71899;51.992;8.648;2023-08-17T10:10:58;10.35;;;8.48;;
82296;SDS011;71899;51.992;8.648;2023-08-17T10:13:28;12.13;;;7.50;;
82296;SDS011;71899;51.992;8.648;2023-08-17T10:16:02;14.45;;;8.13;;
82296;SDS011;71899;51.992;8.648;2023-08-17T10:21:20;12.48;;;8.02;;
82296;SDS011;71899;51.992;8.648;2023-08-17T10:23:49;11.63;;;7.95;;
82296;SDS011;71899;51.992;8.648;2023-08-17T10:26:15;12.82;;;9.18;;
82296;SDS011;71899;51.992;8.648;2023-08-17T10:28:40;11.35;;;8.02;;
82296;SDS011;71899;51.992;8.648;2023-08-17T10:31:08;14.10;;;8.65;;
82296;SDS011;71899;51.992;8.648;2023-08-17T10:33:34;14.52;;;9.45;;
82296;SDS011;71899;51.992;8.648;2023-08-17T10:36:00;12.27;;;8.63;;
82296;SDS011;71899;51.992;8.648;2023-08-17T10:38:26;13.13;;;9.45;;
82296;SDS011;71899;51.992;8.648;2023-08-17T10:41:07;11.52;;;8.82;;
82296;SDS011;71899;51.992;8.648;2023-08-17T10:43:52;13.38;;;10.45;;
82296;SDS011;71899;51.992;8.648;2023-08-17T10:46:36;16.55;;;11.00;;
82296;SDS011;71899;51.992;8.648;2023-08-17T10:49:04;13.52;;;10.00;;
82296;SDS011;71899;51.992;8.648;2023-08-17T10:51:31;12.10;;;10.80;;
82296;SDS011;71899;51.992;8.648;2023-08-17T10:53:58;14.13;;;10.05;;
82296;SDS011;71899;51.992;8.648;2023-08-17T10:56:26;13.50;;;10.15;;
82296;SDS011;71899;51.992;8.648;2023-08-17T10:58:52;13.43;;;9.73;;
82296;SDS011;71899;51.992;8.648;2023-08-17T11:01:31;13.85;;;9.98;;
82296;SDS011;71899;51.992;8.648;2023-08-17T11:04:12;12.95;;;9.95;;
82296;SDS011;71899;51.992;8.648;2023-08-17T11:06:42;15.20;;;10.57;;
82296;SDS011;71899;51.992;8.648;2023-08-17T11:09:08;13.18;;;10.35;;
82296;SDS011;71899;51.992;8.648;2023-08-17T11:11:34;13.50;;;10.43;;
82296;SDS011;71899;51.992;8.648;2023-08-17T11:13:59;13.25;;;9.52;;
82296;SDS011;71899;51.992;8.648;2023-08-17T11:16:24;14.10;;;11.25;;
82296;SDS011;71899;51.992;8.648;2023-08-17T11:18:50;13.05;;;10.40;;
82296;SDS011;71899;51.992;8.648;2023-08-17T11:21:16;15.32;;;10.80;;
82296;SDS011;71899;51.992;8.648;2023-08-17T11:23:42;14.10;;;10.77;;
82296;SDS011;71899;51.992;8.648;2023-08-17T11:26:07;13.50;;;10.10;;
82296;SDS011;71899;51.992;8.648;2023-08-17T11:28:33;13.63;;;10.52;;
82296;SDS011;71899;51.992;8.648;2023-08-17T11:31:04;15.75;;;10.25;;
82296;SDS011;71899;51.992;8.648;2023-08-17T11:33:32;15.20;;;10.45;;
82296;SDS011;71899;51.992;8.648;2023-08-17T11:36:00;10.38;;;9.15;;
82296;SDS011;71899;51.992;8.648;2023-08-17T11:38:34;12.23;;;9.95;;
82296;SDS011;71899;51.992;8.648;2023-08-17T11:41:04;11.68;;;8.77;;
82296;SDS011;71899;51.992;8.648;2023-08-17T11:43:30;10.18;;;9.07;;
82296;SDS011;71899;51.992;8.648;2023-08-17T11:45:56;13.80;;;9.77;;
82296;SDS011;71899;51.992;8.648;2023-08-17T11:48:22;14.93;;;9.85;;
82296;SDS011;71899;51.992;8.648;2023-08-17T11:50:48;15.60;;;10.65;;
82296;SDS011;71899;51.992;8.648;2023-08-17T11:53:14;10.50;;;9.20;;
82296;SDS011;71899;51.992;8.648;2023-08-17T11:55:39;11.25;;;10.13;;
82296;SDS011;71899;51.992;8.648;2023-08-17T11:58:05;12.77;;;9.80;;
82296;SDS011;71899;51.992;8.648;2023-08-17T12:00:34;14.40;;;10.27;;
82296;SDS011;71899;51.992;8.648;2023-08-17T12:03:02;12.35;;;10.18;;
82296;SDS011;71899;51.992;8.648;2023-08-17T12:05:28;15.98;;;10.13;;
82296;SDS011;71899;51.992;8.648;2023-08-17T12:07:56;11.95;;;9.45;;
82296;SDS011;71899;51.992;8.648;2023-08-17T12:10:22;11.90;;;10.68;;
82296;SDS011;71899;51.992;8.648;2023-08-17T12:12:50;13.27;;;11.90;;
82296;SDS011;71899;51.992;8.648;2023-08-17T12:15:16;11.23;;;10.02;;
82296;SDS011;71899;51.992;8.648;2023-08-17T12:17:45;12.18;;;9.25;;
82296;SDS011;71899;51.992;8.648;2023-08-17T12:20:15;11.38;;;9.13;;
82296;SDS011;71899;51.992;8.648;2023-08-17T12:22:45;17.17;;;10.38;;
82296;SDS011;71899;51.992;8.648;2023-08-17T12:25:11;10.77;;;9.68;;
82296;SDS011;71899;51.992;8.648;2023-08-17T12:27:37;11.60;;;10.15;;
82296;SDS011;71899;51.992;8.648;2023-08-17T12:30:03;11.63;;;8.93;;
82296;SDS011;71899;51.992;8.648;2023-08-17T12:32:28;13.98;;;10.15;;
82296;SDS011;71899;51.992;8.648;2023-08-17T12:34:53;11.82;;;10.30;;
82296;SDS011;71899;51.992;8.648;2023-08-17T12:37:19;12.32;;;9.95;;
82296;SDS011;71899;51.992;8.648;2023-08-17T12:39:48;11.82;;;9.77;;
82296;SDS011;71899;51.992;8.648;2023-08-17T12:42:13;11.32;;;9.15;;
82296;SDS011;71899;51.992;8.648;2023-08-17T12:44:39;13.00;;;10.93;;
82296;SDS011;71899;51.992;8.648;2023-08-17T12:47:05;12.45;;;9.90;;
82296;SDS011;71899;51.992;8.648;2023-08-17T12:49:31;10.43;;;9.32;;
82296;SDS011;71899;51.992;8.648;2023-08-17T12:51:56;10.98;;;9.55;;
82296;SDS011;71899;51.992;8.648;2023-08-17T12:54:21;12.65;;;11.35;;
82296;SDS011;71899;51.992;8.648;2023-08-17T12:56:47;11.85;;;10.57;;
82296;SDS011;71899;51.992;8.648;2023-08-17T12:59:12;12.02;;;9.63;;
82296;SDS011;71899;51.992;8.648;2023-08-17T13:01:37;16.08;;;10.70;;
82296;SDS011;71899;51.992;8.648;2023-08-17T13:04:03;11.25;;;10.07;;
82296;SDS011;71899;51.992;8.648;2023-08-17T13:06:29;13.85;;;10.27;;
82296;SDS011;71899;51.992;8.648;2023-08-17T13:08:54;14.65;;;9.60;;
82296;SDS011;71899;51.992;8.648;2023-08-17T13:11:19;13.20;;;10.52;;
82296;SDS011;71899;51.992;8.648;2023-08-17T13:13:45;18.83;;;11.65;;
82296;SDS011;71899;51.992;8.648;2023-08-17T13:16:10;12.55;;;10.35;;
82296;SDS011;71899;51.992;8.648;2023-08-17T13:18:38;11.82;;;10.40;;
82296;SDS011;71899;51.992;8.648;2023-08-17T13:21:04;15.80;;;11.05;;
82296;SDS011;71899;51.992;8.648;2023-08-17T13:23:29;14.50;;;10.55;;
82296;SDS011;71899;51.992;8.648;2023-08-17T13:25:54;11.77;;;10.57;;
82296;SDS011;71899;51.992;8.648;2023-08-17T13:28:20;11.85;;;10.65;;
82296;SDS011;71899;51.992;8.648;2023-08-17T13:30:45;14.70;;;11.43;;
82296;SDS011;71899;51.992;8.648;2023-08-17T13:33:11;16.83;;;12.40;;
82296;SDS011;71899;51.992;8.648;2023-08-17T13:35:37;13.65;;;11.32;;
82296;SDS011;71899;51.992;8.648;2023-08-17T13:38:03;13.48;;;11.23;;
82296;SDS011;71899;51.992;8.648;2023-08-17T13:40:29;16.70;;;12.68;;
82296;SDS011;71899;51.992;8.648;2023-08-17T13:42:55;14.52;;;10.00;;
82296;SDS011;71899;51.992;8.648;2023-08-17T13:45:20;13.85;;;10.82;;
82296;SDS011;71899;51.992;8.648;2023-08-17T13:47:45;15.18;;;11.25;;
82296;SDS011;71899;51.992;8.648;2023-08-17T13:50:11;15.07;;;11.73;;
82296;SDS011;71899;51.992;8.648;2023-08-17T13:52:36;17.30;;;12.05;;
82296;SDS011;71899;51.992;8.648;2023-08-17T13:55:01;14.32;;;11.20;;
82296;SDS011;71899;51.992;8.648;2023-08-17T13:57:27;15.32;;;11.50;;
82296;SDS011;71899;51.992;8.648;2023-08-17T13:59:52;18.83;;;11.88;;
82296;SDS011;71899;51.992;8.648;2023-08-17T14:02:18;18.73;;;10.63;;
82296;SDS011;71899;51.992;8.648;2023-08-17T14:04:44;14.90;;;10.65;;
82296;SDS011;71899;51.992;8.648;2023-08-17T14:07:09;12.07;;;10.88;;
82296;SDS011;71899;51.992;8.648;2023-08-17T14:09:35;16.75;;;10.75;;
82296;SDS011;71899;51.992;8.648;2023-08-17T14:12:00;15.65;;;10.02;;
82296;SDS011;71899;51.992;8.648;2023-08-17T14:14:26;15.07;;;11.23;;
82296;SDS011;71899;51.992;8.648;2023-08-17T14:16:51;15.88;;;11.38;;
82296;SDS011;71899;51.992;8.648;2023-08-17T14:19:17;18.95;;;12.57;;
82296;SDS011;71899;51.992;8.648;2023-08-17T14:21:42;14.23;;;10.40;;
82296;SDS011;71899;51.992;8.648;2023-08-17T14:24:07;11.93;;;10.02;;
82296;SDS011;71899;51.992;8.648;2023-08-17T14:26:33;12.45;;;10.18;;
82296;SDS011;71899;51.992;8.648;2023-08-17T14:28:58;14.95;;;11.27;;
82296;SDS011;71899;51.992;8.648;2023-08-17T14:31:24;13.13;;;9.30;;
82296;SDS011;71899;51.992;8.648;2023-08-17T14:33:49;12.68;;;8.68;;